Terminal Aerodrome Forecast
Issued by NWS Caribou, ME

Home | Current Version | Previous Version | Text Only | Print | Product List | Glossary On
Versions: 1 2 3 4 5 6 7 8 9 10 11 12 13 14 15 16 17
000
FTUS41 KCAR 260000 AAA
TAFCAR
TAF AMD
KCAR 260010Z 2600/2624 27004KT P6SM VCSH BKN080
     FM260200 00000KT P6SM SCT090
     FM261100 22006KT P6SM SCT250
     FM261800 23010KT P6SM BKN060=

USA.gov is the U.S. government's official web portal to all federal, state and local government web resources and services.